createdAt,value
2022-11-15T00:00:54.374Z,8.91
2022-11-15T00:03:26.432Z,8.92
2022-11-15T00:05:53.315Z,8.99
2022-11-15T00:08:20.378Z,9.00
2022-11-15T00:10:57.975Z,8.98
2022-11-15T00:13:24.862Z,9.03
2022-11-15T00:15:51.901Z,9.01
2022-11-15T00:18:19.158Z,9.06
2022-11-15T00:20:45.947Z,9.11
2022-11-15T00:23:12.727Z,9.11
2022-11-15T00:25:39.530Z,9.09
2022-11-15T00:28:06.138Z,9.07
2022-11-15T00:30:32.942Z,9.21
2022-11-15T00:33:04.857Z,9.15
2022-11-15T00:35:35.441Z,9.14
2022-11-15T00:38:02.879Z,9.31
2022-11-15T00:40:30.002Z,9.19
2022-11-15T00:42:56.583Z,9.15
2022-11-15T00:45:23.490Z,9.11
2022-11-15T00:47:50.085Z,9.11
2022-11-15T00:50:17.145Z,9.05
2022-11-15T00:52:44.377Z,9.08
2022-11-15T00:55:16.467Z,9.10
2022-11-15T00:57:43.057Z,9.09
2022-11-15T01:00:10.305Z,9.11
2022-11-15T01:02:36.966Z,9.14
2022-11-15T01:05:03.743Z,9.18
2022-11-15T01:07:30.328Z,9.15
2022-11-15T01:09:57.057Z,9.19
2022-11-15T01:12:23.591Z,9.16
2022-11-15T01:14:51.044Z,9.15
2022-11-15T01:17:17.619Z,9.19
2022-11-15T01:19:44.142Z,9.19
2022-11-15T01:22:10.717Z,9.25
2022-11-15T01:24:37.359Z,9.21
2022-11-15T01:27:03.971Z,9.20
2022-11-15T01:29:30.481Z,9.32
2022-11-15T01:31:57.139Z,9.22
2022-11-15T01:34:23.677Z,9.23
2022-11-15T01:36:50.319Z,9.23
2022-11-15T01:39:17.937Z,9.23
2022-11-15T01:41:44.646Z,9.21
2022-11-15T01:44:41.358Z,9.16
2022-11-15T01:47:39.669Z,9.14
2022-11-15T01:50:11.691Z,9.09
2022-11-15T01:52:40.445Z,9.03
2022-11-15T01:55:23.831Z,8.92
2022-11-15T01:57:54.255Z,8.89
2022-11-15T02:00:21.011Z,8.93
2022-11-15T02:02:47.843Z,8.97
2022-11-15T02:05:14.396Z,8.94
2022-11-15T02:07:41.442Z,8.95
2022-11-15T02:10:20.380Z,8.96
2022-11-15T02:12:48.579Z,8.90
2022-11-15T02:15:15.244Z,8.83
2022-11-15T02:18:00.106Z,8.86
2022-11-15T02:20:26.549Z,8.80
2022-11-15T02:23:38.477Z,8.85
2022-11-15T02:26:50.069Z,8.80
2022-11-15T02:29:35.305Z,8.76
2022-11-15T02:32:15.632Z,8.74
2022-11-15T02:34:48.048Z,8.80
2022-11-15T02:37:29.028Z,8.79
2022-11-15T02:40:13.307Z,8.76
2022-11-15T02:43:12.660Z,8.80
2022-11-15T02:46:12.717Z,8.75
2022-11-15T02:48:40.274Z,8.75
2022-11-15T02:51:07.217Z,8.79
2022-11-15T02:53:33.977Z,8.85
2022-11-15T02:56:00.960Z,8.85
2022-11-15T02:58:33.881Z,8.86
2022-11-15T03:01:13.381Z,8.86
2022-11-15T03:04:18.776Z,8.86
2022-11-15T03:06:59.283Z,8.80
2022-11-15T03:09:36.742Z,8.80
2022-11-15T03:12:21.495Z,8.79
2022-11-15T03:15:15.268Z,8.78
2022-11-15T03:18:05.550Z,8.78
2022-11-15T03:20:33.868Z,8.74
2022-11-15T03:23:11.790Z,8.87
2022-11-15T03:25:45.902Z,9.01
2022-11-15T03:28:17.883Z,9.05
2022-11-15T03:30:47.044Z,8.98
2022-11-15T03:33:13.669Z,8.90
2022-11-15T03:35:44.366Z,8.89
2022-11-15T03:38:38.752Z,8.90
2022-11-15T03:41:09.096Z,8.84
2022-11-15T03:44:08.176Z,8.91
2022-11-15T03:46:49.616Z,8.95
2022-11-15T03:49:37.518Z,8.97
2022-11-15T03:52:05.572Z,8.94
2022-11-15T03:54:32.323Z,8.93
2022-11-15T03:56:58.941Z,8.94
2022-11-15T03:59:25.506Z,8.97
2022-11-15T04:01:52.045Z,9.02
2022-11-15T04:04:18.657Z,8.90
2022-11-15T04:06:45.345Z,8.87
2022-11-15T04:09:11.933Z,8.87
2022-11-15T04:11:38.531Z,8.84
2022-11-15T04:14:05.093Z,8.89
2022-11-15T04:16:31.637Z,8.83
2022-11-15T04:19:16.809Z,8.91
2022-11-15T04:22:02.034Z,8.90
2022-11-15T04:24:28.605Z,8.98
2022-11-15T04:26:55.176Z,8.96
2022-11-15T04:29:36.918Z,9.01
2022-11-15T04:32:05.326Z,9.01
2022-11-15T04:34:32.664Z,9.00
2022-11-15T04:37:15.047Z,9.03
2022-11-15T04:39:42.394Z,9.05
2022-11-15T04:42:09.551Z,8.99
2022-11-15T04:44:36.267Z,9.02
2022-11-15T04:47:03.127Z,8.88
2022-11-15T04:49:29.660Z,8.84
2022-11-15T04:51:56.522Z,8.82
2022-11-15T04:54:23.045Z,8.80
2022-11-15T04:56:49.584Z,8.84
2022-11-15T04:59:16.095Z,8.86
2022-11-15T05:01:45.108Z,8.86
2022-11-15T05:04:20.871Z,8.84
2022-11-15T05:06:49.814Z,8.84
2022-11-15T05:09:18.820Z,8.81
2022-11-15T05:11:45.701Z,8.82
2022-11-15T05:14:12.518Z,8.81
2022-11-15T05:16:39.573Z,8.83
2022-11-15T05:19:06.924Z,8.78
2022-11-15T05:21:34.560Z,8.78
2022-11-15T05:24:01.694Z,8.76
2022-11-15T05:26:28.892Z,8.77
2022-11-15T05:28:57.792Z,8.77
2022-11-15T05:31:26.013Z,8.76
2022-11-15T05:33:53.385Z,8.71
2022-11-15T05:36:41.589Z,8.67
2022-11-15T05:39:09.441Z,8.67
2022-11-15T05:41:53.836Z,8.61
2022-11-15T05:44:23.498Z,8.59
2022-11-15T05:46:54.490Z,8.54
2022-11-15T05:49:25.471Z,8.56
2022-11-15T05:51:53.987Z,8.52
2022-11-15T05:54:22.187Z,8.53
2022-11-15T05:56:49.953Z,8.54
2022-11-15T05:59:18.650Z,8.56
2022-11-15T06:01:45.414Z,8.54
2022-11-15T06:04:12.038Z,8.54
2022-11-15T06:06:38.581Z,8.54
2022-11-15T06:09:05.145Z,8.55
2022-11-15T06:11:31.734Z,8.53
2022-11-15T06:13:58.261Z,8.53
2022-11-15T06:16:24.794Z,8.52
2022-11-15T06:18:51.368Z,8.52
2022-11-15T06:21:17.905Z,8.46
2022-11-15T06:23:44.457Z,8.43
2022-11-15T06:26:11.053Z,8.48
2022-11-15T06:28:37.601Z,8.45
2022-11-15T06:31:05.650Z,8.46
2022-11-15T06:33:32.567Z,8.49
2022-11-15T06:36:16.184Z,8.35
2022-11-15T06:38:47.016Z,8.31
2022-11-15T06:41:14.879Z,8.32
2022-11-15T06:43:42.075Z,8.34
2022-11-15T06:46:09.141Z,8.34
2022-11-15T06:48:37.184Z,8.35
2022-11-15T06:51:05.538Z,8.35
2022-11-15T06:53:33.150Z,8.29
2022-11-15T06:56:05.212Z,8.28
2022-11-15T06:58:31.989Z,8.30
2022-11-15T07:01:04.395Z,8.28
2022-11-15T07:03:31.195Z,8.29
2022-11-15T07:06:05.555Z,8.30
2022-11-15T07:08:33.599Z,8.29
2022-11-15T07:11:02.748Z,8.33
2022-11-15T07:13:34.517Z,8.40
2022-11-15T07:16:06.812Z,8.40
2022-11-15T07:18:37.995Z,8.43
2022-11-15T07:21:05.301Z,8.45
2022-11-15T07:23:32.597Z,8.46
2022-11-15T07:25:59.752Z,8.50
2022-11-15T07:28:27.656Z,8.53
2022-11-15T07:30:54.590Z,8.52
2022-11-15T07:33:21.570Z,8.53
2022-11-15T07:35:51.403Z,8.55
2022-11-15T07:38:21.221Z,8.62
2022-11-15T07:40:47.997Z,8.72
2022-11-15T07:43:14.774Z,8.69
2022-11-15T07:45:46.584Z,8.73
2022-11-15T07:48:13.167Z,8.78
2022-11-15T07:50:43.486Z,8.78
2022-11-15T07:53:11.501Z,8.78
2022-11-15T07:55:40.447Z,8.79
2022-11-15T07:58:12.919Z,8.80
2022-11-15T08:00:39.541Z,8.90
2022-11-15T08:03:06.930Z,8.89
2022-11-15T08:05:34.243Z,8.92
2022-11-15T08:08:00.874Z,8.91
2022-11-15T08:10:28.524Z,8.94
2022-11-15T08:13:14.077Z,8.99
2022-11-15T08:15:40.654Z,9.01
2022-11-15T08:18:12.792Z,9.06
2022-11-15T08:20:39.753Z,8.92
2022-11-15T08:23:07.545Z,8.92
2022-11-15T08:25:35.840Z,8.93
2022-11-15T08:28:05.941Z,9.01
2022-11-15T08:30:37.300Z,9.07
2022-11-15T08:33:04.623Z,9.14
2022-11-15T08:35:31.635Z,9.12
2022-11-15T08:37:58.136Z,9.16
2022-11-15T08:40:25.220Z,9.23
2022-11-15T08:42:51.851Z,9.34
2022-11-15T08:45:18.819Z,9.45
2022-11-15T08:47:51.098Z,9.45
2022-11-15T08:50:21.061Z,9.50
2022-11-15T08:52:49.207Z,9.70
2022-11-15T08:55:17.535Z,9.79
2022-11-15T08:57:44.658Z,9.82
2022-11-15T09:00:12.770Z,9.78
2022-11-15T09:02:40.348Z,9.73
2022-11-15T09:05:07.677Z,9.75
2022-11-15T09:07:34.340Z,9.77
2022-11-15T09:10:01.131Z,9.68
2022-11-15T09:12:27.792Z,9.72
2022-11-15T09:14:54.486Z,9.76
2022-11-15T09:17:24.708Z,9.87
2022-11-15T09:19:51.750Z,9.81
2022-11-15T09:22:18.825Z,9.90
2022-11-15T09:24:45.479Z,10.04
2022-11-15T09:27:12.759Z,10.15
2022-11-15T09:29:39.322Z,10.28
2022-11-15T09:32:06.014Z,10.39
2022-11-15T09:34:32.973Z,10.44
2022-11-15T09:36:59.623Z,10.54
2022-11-15T09:39:26.228Z,10.52
2022-11-15T09:42:13.317Z,10.66
2022-11-15T09:44:53.678Z,10.70
2022-11-15T09:47:50.397Z,10.76
2022-11-15T09:50:29.833Z,10.93
2022-11-15T09:52:56.699Z,11.29
2022-11-15T09:55:35.914Z,11.72
2022-11-15T09:58:16.462Z,12.17
2022-11-15T10:00:49.729Z,12.64
2022-11-15T10:03:23.060Z,12.58
2022-11-15T10:05:52.844Z,12.45
2022-11-15T10:08:40.131Z,12.36
2022-11-15T10:11:38.544Z,12.28
2022-11-15T10:14:21.601Z,12.15
2022-11-15T10:17:13.037Z,12.01
2022-11-15T10:19:55.086Z,11.85
2022-11-15T10:22:39.736Z,12.07
2022-11-15T10:25:09.357Z,12.58
2022-11-15T10:27:36.960Z,13.31
2022-11-15T10:30:11.568Z,13.45
2022-11-15T10:32:38.538Z,13.08
2022-11-15T10:35:31.699Z,13.05
2022-11-15T10:38:10.036Z,13.17
2022-11-15T10:40:38.841Z,13.34
2022-11-15T10:43:18.375Z,13.32
2022-11-15T10:45:46.523Z,13.45
2022-11-15T10:48:13.013Z,13.47
2022-11-15T10:50:45.213Z,13.30
2022-11-15T10:53:21.158Z,13.28
2022-11-15T10:55:50.611Z,13.36
2022-11-15T10:58:34.426Z,13.66
2022-11-15T11:01:30.696Z,13.97
2022-11-15T11:04:09.514Z,13.96
2022-11-15T11:06:57.082Z,13.83
2022-11-15T11:09:38.813Z,14.15
2022-11-15T11:12:10.697Z,14.13
2022-11-15T11:14:39.788Z,13.90
2022-11-15T11:17:21.419Z,13.79
2022-11-15T11:20:02.047Z,13.63
2022-11-15T11:22:56.579Z,13.65
2022-11-15T11:25:57.500Z,13.45
2022-11-15T11:28:40.949Z,13.36
2022-11-15T11:31:39.475Z,13.17
2022-11-15T11:34:21.200Z,13.13
2022-11-15T11:37:19.834Z,13.06
2022-11-15T11:40:10.279Z,13.22
2022-11-15T11:42:47.987Z,13.37
2022-11-15T11:45:24.574Z,13.34
2022-11-15T11:48:14.929Z,13.29
2022-11-15T11:50:45.736Z,13.31
2022-11-15T11:53:15.829Z,13.32
2022-11-15T11:55:55.314Z,13.30
2022-11-15T11:58:30.869Z,13.23
2022-11-15T12:01:01.890Z,13.08
2022-11-15T12:04:04.909Z,13.03
2022-11-15T12:06:53.111Z,13.16
2022-11-15T12:09:31.667Z,13.13
2022-11-15T12:12:07.361Z,13.23
2022-11-15T12:14:37.319Z,13.17
2022-11-15T12:17:04.137Z,13.22
2022-11-15T12:19:33.877Z,13.20
2022-11-15T12:22:10.780Z,13.06
2022-11-15T12:24:50.286Z,12.90
2022-11-15T12:27:28.232Z,12.93
2022-11-15T12:29:59.358Z,13.01
2022-11-15T12:32:30.838Z,13.02
2022-11-15T12:34:59.241Z,13.15
2022-11-15T12:37:44.150Z,13.15
2022-11-15T12:40:11.308Z,13.22
2022-11-15T12:42:57.711Z,13.18
2022-11-15T12:45:39.505Z,13.18
2022-11-15T12:48:18.467Z,13.09
2022-11-15T12:50:51.125Z,13.07
2022-11-15T12:53:23.906Z,13.04
2022-11-15T12:56:05.427Z,13.01
2022-11-15T12:58:55.628Z,12.97
2022-11-15T13:01:31.434Z,12.93
2022-11-15T13:04:19.728Z,12.96
2022-11-15T13:06:58.411Z,13.00
2022-11-15T13:09:30.780Z,12.96
2022-11-15T13:11:58.742Z,12.92
2022-11-15T13:14:37.723Z,12.90
2022-11-15T13:17:19.751Z,12.94
2022-11-15T13:20:01.572Z,12.95
2022-11-15T13:22:47.473Z,12.93
2022-11-15T13:25:32.223Z,12.99
2022-11-15T13:28:02.380Z,13.18
2022-11-15T13:30:32.370Z,13.08
2022-11-15T13:33:10.919Z,13.09
2022-11-15T13:35:42.326Z,13.03
2022-11-15T13:38:25.922Z,12.96
2022-11-15T13:40:52.530Z,12.90
2022-11-15T13:43:22.088Z,12.90
2022-11-15T13:46:23.911Z,12.89
2022-11-15T13:48:59.523Z,12.88
2022-11-15T13:51:38.287Z,12.84
2022-11-15T13:54:14.012Z,12.83
2022-11-15T13:56:45.422Z,12.81
2022-11-15T13:59:20.832Z,12.74
2022-11-15T14:01:47.506Z,12.74
2022-11-15T14:04:19.594Z,12.72
2022-11-15T14:06:53.407Z,12.63
2022-11-15T14:09:33.846Z,12.62
2022-11-15T14:12:02.125Z,12.49
2022-11-15T14:14:30.285Z,12.49
2022-11-15T14:17:00.098Z,12.51
2022-11-15T14:19:26.774Z,12.56
2022-11-15T14:22:32.026Z,12.53
2022-11-15T14:25:16.653Z,12.54
2022-11-15T14:27:45.291Z,12.57
2022-11-15T14:30:17.711Z,12.54
2022-11-15T14:32:49.922Z,12.58
2022-11-15T14:35:24.161Z,12.57
2022-11-15T14:37:51.070Z,12.54
2022-11-15T14:40:20.345Z,12.50
2022-11-15T14:42:48.731Z,12.46
2022-11-15T14:45:20.894Z,12.38
2022-11-15T14:47:48.296Z,12.39
2022-11-15T14:50:17.038Z,12.33
2022-11-15T14:52:44.037Z,12.29
2022-11-15T14:55:22.649Z,12.23
2022-11-15T14:57:49.322Z,12.21
2022-11-15T15:00:16.518Z,12.16
2022-11-15T15:02:45.583Z,12.16
2022-11-15T15:05:18.659Z,12.09
2022-11-15T15:07:45.882Z,12.04
2022-11-15T15:13:01.000Z,11.97
2022-11-15T15:15:33.579Z,11.93
2022-11-15T15:18:00.174Z,11.83
2022-11-15T15:20:26.794Z,11.79
2022-11-15T15:22:53.326Z,11.81
2022-11-15T15:25:29.637Z,11.80
2022-11-15T15:27:56.537Z,11.77
2022-11-15T15:30:24.351Z,11.73
2022-11-15T15:32:51.052Z,11.74
2022-11-15T15:35:19.213Z,11.69
2022-11-15T15:37:47.463Z,11.68
2022-11-15T15:40:17.931Z,11.64
2022-11-15T15:42:44.925Z,11.61
2022-11-15T15:45:12.114Z,11.60
2022-11-15T15:47:39.651Z,11.59
2022-11-15T15:50:30.739Z,11.57
2022-11-15T15:52:59.761Z,11.52
2022-11-15T15:55:26.839Z,11.53
2022-11-15T15:57:54.068Z,11.47
2022-11-15T16:00:23.042Z,11.46
2022-11-15T16:02:49.632Z,11.47
2022-11-15T16:05:16.516Z,11.42
2022-11-15T16:07:44.287Z,11.41
2022-11-15T16:10:23.238Z,11.35
2022-11-15T16:12:50.192Z,11.35
2022-11-15T16:15:16.978Z,11.35
2022-11-15T16:17:56.923Z,11.33
2022-11-15T16:20:36.083Z,11.32
2022-11-15T16:23:09.174Z,11.33
2022-11-15T16:25:56.752Z,11.34
2022-11-15T16:28:30.782Z,11.30
2022-11-15T16:31:10.050Z,11.27
2022-11-15T16:33:37.592Z,11.27
2022-11-15T16:36:06.182Z,11.23
2022-11-15T16:38:33.343Z,11.28
2022-11-15T16:41:00.105Z,11.10
2022-11-15T16:43:26.700Z,11.07
2022-11-15T16:45:53.287Z,11.04
2022-11-15T16:48:26.402Z,11.04
2022-11-15T16:50:56.968Z,10.95
2022-11-15T16:53:23.942Z,10.89
2022-11-15T16:55:50.565Z,10.89
2022-11-15T16:58:17.169Z,10.86
2022-11-15T17:00:43.875Z,10.85
2022-11-15T17:03:10.818Z,10.84
2022-11-15T17:05:37.393Z,10.78
2022-11-15T17:08:03.995Z,10.76
2022-11-15T17:10:30.705Z,10.73
2022-11-15T17:12:57.347Z,10.69
2022-11-15T17:15:24.706Z,10.70
2022-11-15T17:17:53.395Z,10.69
2022-11-15T17:20:21.827Z,10.67
2022-11-15T17:22:48.609Z,10.63
2022-11-15T17:25:15.418Z,10.67
2022-11-15T17:27:42.315Z,10.65
2022-11-15T17:30:11.335Z,10.67
2022-11-15T17:32:38.459Z,10.68
2022-11-15T17:35:14.912Z,10.66
2022-11-15T17:37:42.111Z,10.67
2022-11-15T17:40:09.278Z,10.66
2022-11-15T17:42:35.887Z,10.64
2022-11-15T17:45:08.141Z,10.61
2022-11-15T17:47:40.065Z,10.59
2022-11-15T17:50:06.869Z,10.62
2022-11-15T17:52:33.666Z,10.62
2022-11-15T17:55:00.247Z,10.59
2022-11-15T17:57:32.352Z,10.51
2022-11-15T17:59:58.897Z,10.44
2022-11-15T18:02:28.552Z,10.42
2022-11-15T18:04:55.119Z,10.40
2022-11-15T18:07:21.966Z,10.37
2022-11-15T18:09:48.607Z,10.32
2022-11-15T18:12:15.542Z,10.31
2022-11-15T18:14:42.385Z,10.34
2022-11-15T18:17:09.088Z,10.32
2022-11-15T18:19:36.486Z,10.32
2022-11-15T18:22:05.421Z,10.29
2022-11-15T18:24:34.940Z,10.28
2022-11-15T18:27:03.848Z,10.23
2022-11-15T18:29:30.619Z,10.22
2022-11-15T18:31:57.637Z,10.19
2022-11-15T18:34:27.218Z,10.23
2022-11-15T18:36:53.877Z,10.21
2022-11-15T18:39:20.755Z,10.21
2022-11-15T18:41:48.122Z,10.17
2022-11-15T18:44:15.520Z,10.17
2022-11-15T18:46:44.247Z,10.15
2022-11-15T18:49:12.695Z,10.14
2022-11-15T18:51:41.873Z,10.18
2022-11-15T18:54:14.000Z,10.19
2022-11-15T18:56:40.971Z,10.11
2022-11-15T18:59:08.795Z,10.16
2022-11-15T19:01:40.690Z,10.12
2022-11-15T19:04:17.826Z,10.15
2022-11-15T19:06:46.988Z,10.15
2022-11-15T19:09:16.107Z,10.13
2022-11-15T19:11:44.179Z,10.14
2022-11-15T19:14:12.583Z,10.17
2022-11-15T19:16:52.168Z,10.17
2022-11-15T19:19:28.425Z,10.17
2022-11-15T19:21:57.120Z,10.19
2022-11-15T19:24:23.951Z,10.15
2022-11-15T19:26:50.848Z,10.14
2022-11-15T19:29:18.257Z,10.14
2022-11-15T19:31:45.689Z,10.14
2022-11-15T19:34:12.984Z,10.12
2022-11-15T19:36:44.326Z,10.13
2022-11-15T19:39:13.562Z,10.14
2022-11-15T19:41:42.580Z,10.15
2022-11-15T19:44:10.548Z,10.10
2022-11-15T19:46:38.222Z,10.08
2022-11-15T19:49:07.164Z,10.03
2022-11-15T19:51:34.044Z,10.05
2022-11-15T19:54:06.516Z,10.03
2022-11-15T19:56:34.408Z,10.07
2022-11-15T19:59:01.346Z,10.04
2022-11-15T20:01:33.437Z,10.07
2022-11-15T20:04:00.585Z,10.05
2022-11-15T20:06:32.775Z,10.06
2022-11-15T20:08:59.746Z,10.10
2022-11-15T20:11:26.762Z,10.12
2022-11-15T20:13:58.482Z,10.13
2022-11-15T20:16:25.821Z,10.12
2022-11-15T20:18:53.250Z,10.12
2022-11-15T20:21:20.288Z,10.07
2022-11-15T20:23:47.877Z,10.07
2022-11-15T20:26:15.283Z,10.10
2022-11-15T20:28:43.991Z,10.09
2022-11-15T20:31:11.894Z,10.10
2022-11-15T20:33:38.549Z,10.04
2022-11-15T20:36:11.491Z,10.01
2022-11-15T20:38:38.521Z,10.04
2022-11-15T20:41:05.639Z,10.02
2022-11-15T20:43:32.262Z,10.06
2022-11-15T20:45:58.971Z,10.07
2022-11-15T20:48:25.588Z,10.07
2022-11-15T20:50:52.215Z,10.14
2022-11-15T20:53:20.248Z,10.06
2022-11-15T20:55:49.751Z,10.09
2022-11-15T20:58:17.322Z,10.25
2022-11-15T21:00:45.720Z,10.29
2022-11-15T21:03:14.248Z,10.33
2022-11-15T21:05:44.628Z,10.33
2022-11-15T21:08:12.369Z,10.38
2022-11-15T21:10:58.941Z,10.39
2022-11-15T21:13:25.597Z,10.38
2022-11-15T21:15:56.944Z,10.31
2022-11-15T21:18:23.875Z,10.33
2022-11-15T21:20:50.756Z,10.35
2022-11-15T21:23:17.332Z,10.39
2022-11-15T21:25:49.810Z,10.37
2022-11-15T21:28:16.619Z,10.39
2022-11-15T21:30:52.360Z,10.38
2022-11-15T21:33:18.948Z,10.40
2022-11-15T21:35:45.509Z,10.44
2022-11-15T21:38:12.067Z,10.42
2022-11-15T21:40:38.978Z,10.37
2022-11-15T21:43:05.525Z,10.36
2022-11-15T21:45:32.098Z,10.35
2022-11-15T21:47:58.708Z,10.27
2022-11-15T21:50:25.264Z,10.25
2022-11-15T21:52:51.794Z,10.23
2022-11-15T21:55:18.576Z,10.23
2022-11-15T21:57:45.126Z,10.24
2022-11-15T22:00:31.115Z,10.21
2022-11-15T22:02:58.024Z,10.20
2022-11-15T22:05:24.678Z,10.19
2022-11-15T22:07:51.299Z,10.21
2022-11-15T22:10:18.304Z,10.22
2022-11-15T22:12:44.821Z,10.19
2022-11-15T22:15:11.414Z,10.20
2022-11-15T22:17:56.736Z,10.18
2022-11-15T22:20:43.503Z,10.19
2022-11-15T22:23:09.997Z,10.20
2022-11-15T22:25:36.644Z,10.19
2022-11-15T22:28:03.246Z,10.21
2022-11-15T22:30:29.851Z,10.24
2022-11-15T22:32:56.517Z,10.25
2022-11-15T22:35:23.126Z,10.25
2022-11-15T22:37:49.759Z,10.24
2022-11-15T22:40:16.876Z,10.24
2022-11-15T22:42:43.524Z,10.24
2022-11-15T22:45:10.298Z,10.29
2022-11-15T22:47:36.973Z,10.23
2022-11-15T22:50:05.435Z,10.30
2022-11-15T22:52:32.045Z,10.33
2022-11-15T22:54:58.709Z,10.28
2022-11-15T22:57:25.321Z,10.28
2022-11-15T22:59:51.949Z,10.29
2022-11-15T23:02:18.798Z,10.29
2022-11-15T23:04:45.922Z,10.31
2022-11-15T23:07:12.613Z,10.34
2022-11-15T23:09:39.451Z,10.19
2022-11-15T23:12:25.227Z,10.17
2022-11-15T23:14:51.836Z,10.15
2022-11-15T23:17:18.572Z,10.14
2022-11-15T23:19:45.170Z,10.14
2022-11-15T23:22:30.486Z,10.10
2022-11-15T23:24:59.503Z,10.10
2022-11-15T23:27:26.172Z,10.08
2022-11-15T23:30:11.770Z,10.09
2022-11-15T23:32:57.138Z,10.13
2022-11-15T23:35:24.038Z,10.10
2022-11-15T23:37:50.616Z,10.05
2022-11-15T23:40:17.608Z,10.07
2022-11-15T23:42:44.547Z,10.06
2022-11-15T23:45:11.213Z,10.07
2022-11-15T23:47:37.798Z,10.04
2022-11-15T23:50:04.747Z,10.03
2022-11-15T23:52:31.377Z,10.02
2022-11-15T23:54:58.008Z,10.01
2022-11-15T23:57:24.880Z,10.02
2022-11-15T23:59:51.546Z,10.04
